createdAt,value
2022-12-23T00:01:02.696Z,97250.69
2022-12-23T00:03:29.515Z,97260.97
2022-12-23T00:05:56.188Z,97251.03
2022-12-23T00:08:22.947Z,97248.47
2022-12-23T00:10:50.231Z,97251.06
2022-12-23T00:13:35.444Z,97249.09
2022-12-23T00:16:02.808Z,97260.44
2022-12-23T00:18:29.407Z,97253.19
2022-12-23T00:21:08.310Z,97264.03
2022-12-23T00:23:36.021Z,97254.81
2022-12-23T00:26:02.760Z,97261.03
2022-12-23T00:28:29.667Z,97247.91
2022-12-23T00:30:59.490Z,97255.72
2022-12-23T00:33:27.020Z,97252.44
2022-12-23T00:35:53.662Z,97253.28
2022-12-23T00:38:40.424Z,97246.53
2022-12-23T00:41:27.148Z,97243.34
2022-12-23T00:43:53.642Z,97249.81
2022-12-23T00:46:20.208Z,97251.38
2022-12-23T00:49:05.184Z,97245.88
2022-12-23T00:51:31.758Z,97253.47
2022-12-23T00:53:58.329Z,97258.81
2022-12-23T00:56:24.840Z,97255.91
2022-12-23T00:58:51.395Z,97260.38
2022-12-23T01:01:36.680Z,97253.91
2022-12-23T01:04:26.249Z,97262.94
2022-12-23T01:06:52.769Z,97263.94
2022-12-23T01:09:19.476Z,97265.75
2022-12-23T01:11:46.005Z,97272.22
2022-12-23T01:14:13.516Z,97274.44
2022-12-23T01:16:40.490Z,97269.69
2022-12-23T01:19:07.300Z,97281.38
2022-12-23T01:21:33.904Z,97288.75
2022-12-23T01:24:00.480Z,97290.19
2022-12-23T01:26:27.147Z,97284.09
2022-12-23T01:28:57.228Z,97290.38
2022-12-23T01:31:24.493Z,97292.75
2022-12-23T01:33:51.227Z,97295.03
2022-12-23T01:36:17.734Z,97298.94
2022-12-23T01:38:44.464Z,97296.47
2022-12-23T01:41:43.092Z,97302.75
2022-12-23T01:44:28.593Z,97305.31
2022-12-23T01:46:55.091Z,97310.69
2022-12-23T01:49:21.620Z,97313.72
2022-12-23T01:51:48.118Z,97311.69
2022-12-23T01:54:14.653Z,97307.00
2022-12-23T01:56:41.253Z,97310.13
2022-12-23T01:59:37.429Z,97318.75
2022-12-23T02:02:22.754Z,97318.88
2022-12-23T02:04:49.669Z,97327.72
2022-12-23T02:07:34.935Z,97324.34
2022-12-23T02:10:01.482Z,97334.38
2022-12-23T02:12:37.359Z,97334.38
2022-12-23T02:15:26.004Z,97331.50
2022-12-23T02:17:58.756Z,97345.59
2022-12-23T02:20:36.422Z,97343.13
2022-12-23T02:23:18.343Z,97352.97
2022-12-23T02:26:00.171Z,97348.69
2022-12-23T02:28:37.164Z,97364.03
2022-12-23T02:31:10.606Z,97363.13
2022-12-23T02:33:51.647Z,97361.00
2022-12-23T02:36:18.101Z,97368.56
2022-12-23T02:38:59.547Z,97371.66
2022-12-23T02:41:38.944Z,97376.69
2022-12-23T02:44:10.691Z,97378.34
2022-12-23T02:46:39.538Z,97379.81
2022-12-23T02:49:25.907Z,97377.59
2022-12-23T02:51:53.872Z,97385.47
2022-12-23T02:54:25.339Z,97392.31
2022-12-23T02:56:51.923Z,97399.66
2022-12-23T02:59:19.823Z,97393.78
2022-12-23T03:01:46.440Z,97406.56
2022-12-23T03:04:13.059Z,97399.16
2022-12-23T03:06:40.125Z,97412.66
2022-12-23T03:09:06.892Z,97407.75
2022-12-23T03:11:46.065Z,97409.13
2022-12-23T03:14:30.971Z,97406.72
2022-12-23T03:17:07.957Z,97405.09
2022-12-23T03:19:40.253Z,97415.31
2022-12-23T03:22:09.903Z,97424.38
2022-12-23T03:24:45.119Z,97423.00
2022-12-23T03:27:14.705Z,97423.66
2022-12-23T03:29:42.610Z,97431.41
2022-12-23T03:32:09.116Z,97432.41
2022-12-23T03:34:36.662Z,97425.72
2022-12-23T03:37:04.788Z,97434.31
2022-12-23T03:39:32.499Z,97432.47
2022-12-23T03:42:00.655Z,97433.16
2022-12-23T03:44:31.217Z,97448.59
2022-12-23T03:47:11.144Z,97447.78
2022-12-23T03:49:45.664Z,97449.06
2022-12-23T03:52:20.546Z,97448.16
2022-12-23T03:54:54.727Z,97446.69
2022-12-23T03:57:22.099Z,97449.34
2022-12-23T03:59:51.573Z,97456.28
2022-12-23T04:02:18.181Z,97449.13
2022-12-23T04:04:52.113Z,97459.50
2022-12-23T04:07:20.270Z,97464.78
2022-12-23T04:09:46.944Z,97466.25
2022-12-23T04:12:14.073Z,97464.03
2022-12-23T04:14:45.317Z,97465.53
2022-12-23T04:17:11.859Z,97458.47
2022-12-23T04:19:38.395Z,97463.78
2022-12-23T04:22:04.923Z,97468.53
2022-12-23T04:24:31.449Z,97467.59
2022-12-23T04:26:57.969Z,97463.97
2022-12-23T04:29:24.479Z,97469.72
2022-12-23T04:31:51.087Z,97478.75
2022-12-23T04:34:17.715Z,97488.53
2022-12-23T04:36:44.286Z,97484.16
2022-12-23T04:39:10.850Z,97477.56
2022-12-23T04:41:37.399Z,97476.56
2022-12-23T04:44:03.984Z,97475.56
2022-12-23T04:46:30.553Z,97478.69
2022-12-23T04:48:57.125Z,97482.75
2022-12-23T04:51:23.833Z,97499.03
2022-12-23T04:53:50.508Z,97497.75
2022-12-23T04:56:17.067Z,97502.88
2022-12-23T04:58:43.571Z,97500.13
2022-12-23T05:01:10.856Z,97507.25
2022-12-23T05:03:39.656Z,97507.06
2022-12-23T05:06:06.413Z,97515.84
2022-12-23T05:08:33.098Z,97525.97
2022-12-23T05:10:59.635Z,97525.69
2022-12-23T05:13:26.270Z,97518.56
2022-12-23T05:15:53.425Z,97521.75
2022-12-23T05:18:20.206Z,97518.50
2022-12-23T05:20:46.751Z,97527.16
2022-12-23T05:23:13.412Z,97523.97
2022-12-23T05:25:40.126Z,97533.66
2022-12-23T05:28:07.981Z,97521.50
2022-12-23T05:30:34.539Z,97516.47
2022-12-23T05:33:01.066Z,97516.56
2022-12-23T05:35:27.759Z,97524.69
2022-12-23T05:37:54.306Z,97522.44
2022-12-23T05:40:25.330Z,97526.44
2022-12-23T05:42:56.291Z,97522.38
2022-12-23T05:45:22.858Z,97527.00
2022-12-23T05:47:49.361Z,97529.88
2022-12-23T05:50:15.857Z,97536.53
2022-12-23T05:52:42.346Z,97542.72
2022-12-23T05:55:09.108Z,97546.06
2022-12-23T05:57:35.859Z,97547.75
2022-12-23T06:00:03.703Z,97552.56
2022-12-23T06:02:39.108Z,97542.50
2022-12-23T06:05:08.587Z,97537.75
2022-12-23T06:07:35.207Z,97547.66
2022-12-23T06:10:01.781Z,97547.47
2022-12-23T06:12:30.153Z,97554.94
2022-12-23T06:14:58.041Z,97555.69
2022-12-23T06:17:27.057Z,97551.66
2022-12-23T06:19:53.661Z,97554.69
2022-12-23T06:22:21.833Z,97549.38
2022-12-23T06:24:48.345Z,97556.31
2022-12-23T06:27:14.919Z,97551.47
2022-12-23T06:29:41.496Z,97556.28
2022-12-23T06:32:08.210Z,97555.22
2022-12-23T06:34:37.674Z,97561.66
2022-12-23T06:37:04.252Z,97566.25
2022-12-23T06:39:30.846Z,97566.94
2022-12-23T06:41:57.399Z,97560.38
2022-12-23T06:44:24.241Z,97556.28
2022-12-23T06:46:50.854Z,97561.88
2022-12-23T06:49:17.631Z,97560.25
2022-12-23T06:51:44.149Z,97565.00
2022-12-23T06:54:12.019Z,97556.84
2022-12-23T06:56:38.983Z,97563.22
2022-12-23T06:59:05.525Z,97564.25
2022-12-23T07:01:32.155Z,97565.34
2022-12-23T07:03:58.735Z,97573.34
2022-12-23T07:06:25.240Z,97573.94
2022-12-23T07:08:51.767Z,97585.56
2022-12-23T07:11:18.671Z,97584.75
2022-12-23T07:13:45.887Z,97587.78
2022-12-23T07:16:12.457Z,97591.63
2022-12-23T07:18:38.982Z,97592.97
2022-12-23T07:21:08.829Z,97590.22
2022-12-23T07:23:40.052Z,97583.94
2022-12-23T07:26:06.605Z,97582.34
2022-12-23T07:28:33.523Z,97589.09
2022-12-23T07:31:00.127Z,97579.06
2022-12-23T07:33:26.834Z,97573.41
2022-12-23T07:35:58.095Z,97579.06
2022-12-23T07:38:24.900Z,97584.53
2022-12-23T07:40:51.455Z,97589.41
2022-12-23T07:43:25.002Z,97586.75
2022-12-23T07:46:00.414Z,97582.81
2022-12-23T07:48:28.822Z,97587.22
2022-12-23T07:51:00.205Z,97585.47
2022-12-23T07:53:29.174Z,97581.81
2022-12-23T07:55:56.745Z,97577.69
2022-12-23T07:58:23.740Z,97580.25
2022-12-23T08:00:50.533Z,97579.81
2022-12-23T08:03:17.377Z,97600.13
2022-12-23T08:05:44.175Z,97593.06
2022-12-23T08:08:10.841Z,97597.97
2022-12-23T08:10:41.491Z,97605.75
2022-12-23T08:13:11.452Z,97607.75
2022-12-23T08:15:38.073Z,97621.50
2022-12-23T08:18:04.995Z,97612.56
2022-12-23T08:20:31.510Z,97621.97
2022-12-23T08:22:58.062Z,97616.56
2022-12-23T08:25:24.568Z,97616.00
2022-12-23T08:27:51.612Z,97619.13
2022-12-23T08:30:18.827Z,97613.53
2022-12-23T08:32:45.316Z,97613.72
2022-12-23T08:35:11.844Z,97615.34
2022-12-23T08:37:38.363Z,97607.69
2022-12-23T08:40:05.092Z,97604.75
2022-12-23T08:42:34.471Z,97607.50
2022-12-23T08:45:01.263Z,97610.03
2022-12-23T08:47:28.032Z,97590.75
2022-12-23T08:49:54.790Z,97597.97
2022-12-23T08:52:21.337Z,97580.06
2022-12-23T08:54:48.016Z,97584.44
2022-12-23T08:57:22.310Z,97593.47
2022-12-23T08:59:48.918Z,97595.13
2022-12-23T09:02:15.803Z,97600.06
2022-12-23T09:04:42.708Z,97599.75
2022-12-23T09:07:09.211Z,97605.56
2022-12-23T09:09:37.001Z,97611.63
2022-12-23T09:12:03.660Z,97612.16
2022-12-23T09:14:30.273Z,97615.56
2022-12-23T09:16:56.965Z,97613.53
2022-12-23T09:19:23.495Z,97613.38
2022-12-23T09:21:50.054Z,97618.66
2022-12-23T09:24:16.668Z,97613.06
2022-12-23T09:26:43.249Z,97611.72
2022-12-23T09:29:13.954Z,97610.06
2022-12-23T09:31:40.627Z,97600.34
2022-12-23T09:34:07.262Z,97601.56
2022-12-23T09:36:34.045Z,97602.94
2022-12-23T09:39:00.622Z,97594.22
2022-12-23T09:41:40.275Z,97594.03
2022-12-23T09:44:09.591Z,97587.47
2022-12-23T09:46:36.228Z,97579.41
2022-12-23T09:49:04.462Z,97577.47
2022-12-23T09:51:31.289Z,97569.97
2022-12-23T09:54:03.580Z,97575.97
2022-12-23T09:56:36.247Z,97568.22
2022-12-23T09:59:08.595Z,97578.19
2022-12-23T10:01:37.872Z,97580.63
2022-12-23T10:04:14.469Z,97575.03
2022-12-23T10:06:41.250Z,97571.16
2022-12-23T10:09:07.921Z,97571.00
2022-12-23T10:11:38.064Z,97570.41
2022-12-23T10:14:09.402Z,97558.31
2022-12-23T10:16:42.785Z,97554.56
2022-12-23T10:19:13.871Z,97553.97
2022-12-23T10:21:47.343Z,97548.84
2022-12-23T10:24:17.527Z,97551.91
2022-12-23T10:26:49.118Z,97555.19
2022-12-23T10:29:19.125Z,97547.66
2022-12-23T10:31:49.311Z,97547.94
2022-12-23T10:34:36.525Z,97551.50
2022-12-23T10:37:28.177Z,97550.03
2022-12-23T10:40:13.477Z,97553.72
2022-12-23T10:42:46.232Z,97550.34
2022-12-23T10:45:31.423Z,97540.31
2022-12-23T10:48:11.974Z,97537.50
2022-12-23T10:50:46.777Z,97538.16
2022-12-23T10:53:33.482Z,97530.69
2022-12-23T10:56:00.252Z,97514.47
2022-12-23T10:58:26.916Z,97518.34
2022-12-23T11:00:54.669Z,97515.78
2022-12-23T11:03:28.976Z,97499.34
2022-12-23T11:05:55.806Z,97498.84
2022-12-23T11:08:26.024Z,97503.09
2022-12-23T11:10:52.876Z,97504.13
2022-12-23T11:13:27.001Z,97499.66
2022-12-23T11:15:53.845Z,97495.84
2022-12-23T11:18:20.695Z,97493.13
2022-12-23T11:21:06.443Z,97488.56
2022-12-23T11:23:35.172Z,97480.31
2022-12-23T11:26:11.654Z,97482.00
2022-12-23T11:28:39.321Z,97476.88
2022-12-23T11:31:09.628Z,97474.22
2022-12-23T11:33:37.858Z,97467.63
2022-12-23T11:36:15.211Z,97473.75
2022-12-23T11:38:48.505Z,97457.41
2022-12-23T11:41:18.385Z,97452.50
2022-12-23T11:43:44.961Z,97446.78
2022-12-23T11:46:16.030Z,97435.97
2022-12-23T11:48:42.979Z,97438.75
2022-12-23T11:51:09.490Z,97435.69
2022-12-23T11:53:36.815Z,97436.03
2022-12-23T11:56:07.953Z,97433.44
2022-12-23T11:58:57.737Z,97438.22
2022-12-23T12:01:24.318Z,97427.34
2022-12-23T12:03:59.447Z,97425.97
2022-12-23T12:06:29.674Z,97411.41
2022-12-23T12:08:56.858Z,97411.25
2022-12-23T12:11:27.550Z,97412.69
2022-12-23T12:14:00.876Z,97404.91
2022-12-23T12:16:30.534Z,97396.94
2022-12-23T12:19:20.163Z,97399.81
2022-12-23T12:21:48.131Z,97387.97
2022-12-23T12:24:20.321Z,97384.91
2022-12-23T12:26:51.256Z,97375.69
2022-12-23T12:29:23.771Z,97368.69
2022-12-23T12:31:54.840Z,97364.91
2022-12-23T12:34:41.392Z,97360.00
2022-12-23T12:37:10.984Z,97358.41
2022-12-23T12:39:41.719Z,97360.06
2022-12-23T12:42:15.904Z,97361.69
2022-12-23T12:44:54.069Z,97349.13
2022-12-23T12:47:53.361Z,97354.59
2022-12-23T12:50:28.046Z,97360.94
2022-12-23T12:52:55.320Z,97347.09
2022-12-23T12:55:48.467Z,97339.72
2022-12-23T12:58:19.021Z,97335.25
2022-12-23T13:00:57.226Z,97333.00
2022-12-23T13:03:29.752Z,97326.44
2022-12-23T13:05:59.211Z,97332.88
2022-12-23T13:08:41.020Z,97327.09
2022-12-23T13:11:31.007Z,97319.97
2022-12-23T13:14:17.329Z,97321.41
2022-12-23T13:16:46.733Z,97313.91
2022-12-23T13:19:25.463Z,97309.63
2022-12-23T13:21:54.881Z,97310.91
2022-12-23T13:24:33.313Z,97303.00
2022-12-23T13:27:02.845Z,97294.38
2022-12-23T13:29:44.520Z,97297.69
2022-12-23T13:32:22.088Z,97295.03
2022-12-23T13:34:48.537Z,97287.94
2022-12-23T13:37:32.917Z,97291.56
2022-12-23T13:40:17.862Z,97293.81
2022-12-23T13:42:53.963Z,97296.72
2022-12-23T13:45:20.497Z,97301.63
2022-12-23T13:48:04.550Z,97297.13
2022-12-23T13:50:37.063Z,97293.19
2022-12-23T13:53:06.529Z,97285.38
2022-12-23T13:55:51.774Z,97281.53
2022-12-23T13:58:24.544Z,97272.53
2022-12-23T14:01:17.803Z,97272.09
2022-12-23T14:03:44.504Z,97270.84
2022-12-23T14:06:17.368Z,97266.59
2022-12-23T14:08:43.942Z,97276.19
2022-12-23T14:11:21.959Z,97276.38
2022-12-23T14:13:51.553Z,97265.59
2022-12-23T14:16:18.098Z,97263.97
2022-12-23T14:19:02.288Z,97267.03
2022-12-23T14:21:35.726Z,97261.09
2022-12-23T14:24:21.123Z,97259.25
2022-12-23T14:27:01.236Z,97269.84
2022-12-23T14:29:43.676Z,97262.66
2022-12-23T14:32:19.062Z,97265.31
2022-12-23T14:35:03.799Z,97256.41
2022-12-23T14:37:34.102Z,97255.56
2022-12-23T14:40:20.607Z,97255.91
2022-12-23T14:42:47.184Z,97250.88
2022-12-23T14:45:41.249Z,97263.75
2022-12-23T14:48:27.126Z,97260.03
2022-12-23T14:50:57.235Z,97261.09
2022-12-23T14:53:27.978Z,97247.81
2022-12-23T14:56:10.720Z,97254.00
2022-12-23T14:58:43.388Z,97258.03
2022-12-23T15:01:11.346Z,97255.16
2022-12-23T15:03:48.386Z,97261.72
2022-12-23T15:06:20.084Z,97268.00
2022-12-23T15:08:46.869Z,97277.03
2022-12-23T15:11:17.168Z,97267.25
2022-12-23T15:13:43.712Z,97267.66
2022-12-23T15:16:14.740Z,97274.41
2022-12-23T15:18:52.109Z,97272.97
2022-12-23T15:21:19.321Z,97264.44
2022-12-23T15:23:49.776Z,97267.84
2022-12-23T15:26:16.325Z,97278.09
2022-12-23T15:28:42.932Z,97290.72
2022-12-23T15:31:19.337Z,97296.41
2022-12-23T15:34:03.435Z,97306.63
2022-12-23T15:36:35.655Z,97302.94
2022-12-23T15:39:03.523Z,97306.03
2022-12-23T15:41:30.060Z,97308.09
2022-12-23T15:43:56.813Z,97309.00
2022-12-23T15:46:29.136Z,97302.00
2022-12-23T15:48:56.761Z,97303.78
2022-12-23T15:52:05.776Z,97299.06
2022-12-23T15:54:22.756Z,97302.00
2022-12-23T15:56:49.858Z,97300.56
2022-12-23T15:59:24.460Z,97301.56
2022-12-23T16:01:51.225Z,97299.59
2022-12-23T16:04:19.319Z,97297.75
2022-12-23T16:06:48.202Z,97299.97
2022-12-23T16:09:17.871Z,97299.59
2022-12-23T16:11:55.359Z,97297.31
2022-12-23T16:14:31.139Z,97298.16
2022-12-23T16:17:05.167Z,97292.44
2022-12-23T16:19:47.189Z,97286.94
2022-12-23T16:22:26.355Z,97300.00
2022-12-23T16:25:16.124Z,97290.44
2022-12-23T16:27:43.213Z,97300.63
2022-12-23T16:30:19.936Z,97287.78
2022-12-23T16:32:47.935Z,97297.16
2022-12-23T16:35:24.670Z,97299.19
2022-12-23T16:37:51.544Z,97302.06
2022-12-23T16:40:19.620Z,97304.72
2022-12-23T16:42:46.145Z,97308.81
2022-12-23T16:45:13.430Z,97308.81
2022-12-23T16:47:41.154Z,97305.94
2022-12-23T16:50:08.897Z,97309.25
2022-12-23T16:52:35.445Z,97314.97
2022-12-23T16:55:01.976Z,97310.88
2022-12-23T16:57:28.595Z,97311.91
2022-12-23T16:59:55.126Z,97311.47
2022-12-23T17:02:22.573Z,97313.94
2022-12-23T17:04:49.143Z,97313.13
2022-12-23T17:07:15.655Z,97313.34
2022-12-23T17:09:42.179Z,97307.41
2022-12-23T17:12:08.843Z,97297.78
2022-12-23T17:14:35.434Z,97296.13
2022-12-23T17:17:02.235Z,97298.97
2022-12-23T17:19:29.714Z,97306.56
2022-12-23T17:21:58.374Z,97310.88
2022-12-23T17:24:25.817Z,97303.09
2022-12-23T17:26:52.851Z,97302.28
2022-12-23T17:29:19.414Z,97311.28
2022-12-23T17:31:45.976Z,97308.56
2022-12-23T17:34:16.603Z,97312.00
2022-12-23T17:36:49.254Z,97312.75
2022-12-23T17:39:16.764Z,97313.16
2022-12-23T17:41:43.363Z,97311.66
2022-12-23T17:44:10.219Z,97323.09
2022-12-23T17:46:36.735Z,97317.19
2022-12-23T17:49:03.524Z,97324.34
2022-12-23T17:51:30.053Z,97331.91
2022-12-23T17:53:58.309Z,97344.19
2022-12-23T17:56:26.901Z,97347.03
2022-12-23T17:58:53.470Z,97347.72
2022-12-23T18:01:19.962Z,97365.22
2022-12-23T18:03:46.557Z,97364.81
2022-12-23T18:06:13.989Z,97319.59
2022-12-23T18:08:40.778Z,97320.94
2022-12-23T18:11:07.391Z,97329.94
2022-12-23T18:13:33.889Z,97347.91
2022-12-23T18:16:00.498Z,97382.03
2022-12-23T18:18:36.771Z,97356.63
2022-12-23T18:21:08.416Z,97370.88
2022-12-23T18:23:37.175Z,97391.44
2022-12-23T18:26:03.740Z,97368.53
2022-12-23T18:28:30.319Z,97372.03
2022-12-23T18:30:56.992Z,97364.91
2022-12-23T18:33:28.919Z,97360.88
2022-12-23T18:35:55.469Z,97376.31
2022-12-23T18:38:21.986Z,97370.97
2022-12-23T18:40:52.054Z,97377.59
2022-12-23T18:43:19.776Z,97368.75
2022-12-23T18:45:52.457Z,97380.34
2022-12-23T18:48:20.150Z,97376.50
2022-12-23T18:50:46.790Z,97385.66
2022-12-23T18:53:23.464Z,97384.41
2022-12-23T18:55:51.111Z,97386.38
2022-12-23T18:58:20.535Z,97399.16
2022-12-23T19:00:48.117Z,97402.28
2022-12-23T19:03:19.113Z,97396.03
2022-12-23T19:05:46.533Z,97412.78
2022-12-23T19:08:13.045Z,97406.66
2022-12-23T19:10:39.854Z,97412.69
2022-12-23T19:13:06.371Z,97418.31
2022-12-23T19:15:33.118Z,97419.69
2022-12-23T19:17:59.650Z,97420.41
2022-12-23T19:20:26.175Z,97431.28
2022-12-23T19:22:52.751Z,97430.63
2022-12-23T19:25:19.378Z,97443.50
2022-12-23T19:27:46.061Z,97443.69
2022-12-23T19:30:14.022Z,97446.97
2022-12-23T19:32:40.834Z,97452.38
2022-12-23T19:35:07.683Z,97445.44
2022-12-23T19:37:34.748Z,97460.69
2022-12-23T19:40:01.252Z,97479.03
2022-12-23T19:42:27.781Z,97468.28
2022-12-23T19:44:54.309Z,97473.38
2022-12-23T19:47:20.809Z,97479.53
2022-12-23T19:49:47.507Z,97480.91
2022-12-23T19:52:14.011Z,97469.25
2022-12-23T19:54:40.685Z,97467.59
2022-12-23T19:57:07.325Z,97472.81
2022-12-23T19:59:33.904Z,97475.50
2022-12-23T20:02:00.543Z,97479.41
2022-12-23T20:04:27.174Z,97483.09
2022-12-23T20:06:53.669Z,97477.31
2022-12-23T20:09:20.216Z,97482.31
2022-12-23T20:11:47.492Z,97480.75
2022-12-23T20:14:14.661Z,97494.72
2022-12-23T20:16:41.205Z,97489.28
2022-12-23T20:19:07.719Z,97501.38
2022-12-23T20:21:34.716Z,97511.38
2022-12-23T20:24:01.478Z,97496.25
2022-12-23T20:26:29.157Z,97503.16
2022-12-23T20:28:56.264Z,97506.56
2022-12-23T20:31:23.547Z,97501.09
2022-12-23T20:33:50.548Z,97498.81
2022-12-23T20:36:18.234Z,97525.66
2022-12-23T20:38:45.352Z,97539.00
2022-12-23T20:41:13.273Z,97547.31
2022-12-23T20:43:40.129Z,97545.31
2022-12-23T20:46:07.513Z,97551.56
2022-12-23T20:48:34.867Z,97576.84
2022-12-23T20:51:05.088Z,97572.91
2022-12-23T20:53:31.601Z,97578.47
2022-12-23T20:56:05.572Z,97582.16
2022-12-23T20:58:50.622Z,97582.19
2022-12-23T21:01:17.262Z,97586.66
2022-12-23T21:03:43.925Z,97592.50
2022-12-23T21:06:10.454Z,97597.59
2022-12-23T21:08:37.556Z,97603.03
2022-12-23T21:11:04.652Z,97600.31
2022-12-23T21:13:31.427Z,97615.13
2022-12-23T21:16:02.020Z,97629.66
2022-12-23T21:18:28.608Z,97613.22
2022-12-23T21:20:58.511Z,97617.09
2022-12-23T21:23:25.011Z,97620.91
2022-12-23T21:25:51.533Z,97626.97
2022-12-23T21:28:18.153Z,97624.66
2022-12-23T21:30:44.747Z,97617.88
2022-12-23T21:33:11.277Z,97625.09
2022-12-23T21:35:37.797Z,97616.84
2022-12-23T21:38:04.333Z,97611.47
2022-12-23T21:40:30.842Z,97613.00
2022-12-23T21:42:57.323Z,97611.94
2022-12-23T21:45:23.860Z,97633.75
2022-12-23T21:47:50.346Z,97629.91
2022-12-23T21:50:16.897Z,97635.47
2022-12-23T21:52:43.401Z,97643.06
2022-12-23T21:55:11.223Z,97659.97
2022-12-23T21:57:37.810Z,97669.47
2022-12-23T22:00:04.486Z,97667.13
2022-12-23T22:02:31.168Z,97670.16
2022-12-23T22:04:57.756Z,97689.41
2022-12-23T22:07:24.330Z,97681.66
2022-12-23T22:09:50.860Z,97691.44
2022-12-23T22:12:17.392Z,97693.00
2022-12-23T22:14:44.242Z,97681.31
2022-12-23T22:17:10.742Z,97693.34
2022-12-23T22:19:37.230Z,97679.47
2022-12-23T22:22:03.732Z,97684.19
2022-12-23T22:24:30.260Z,97684.13
2022-12-23T22:26:56.759Z,97691.06
2022-12-23T22:29:23.340Z,97692.53
2022-12-23T22:31:50.230Z,97686.59
2022-12-23T22:34:18.561Z,97674.88
2022-12-23T22:36:45.363Z,97687.53
2022-12-23T22:39:20.089Z,97674.53
2022-12-23T22:41:47.380Z,97682.75
2022-12-23T22:44:13.906Z,97696.28
2022-12-23T22:46:40.520Z,97700.66
2022-12-23T22:49:07.185Z,97703.69
2022-12-23T22:51:33.701Z,97719.16
2022-12-23T22:54:01.526Z,97702.53
2022-12-23T22:56:28.077Z,97714.31
2022-12-23T22:58:55.124Z,97712.56
2022-12-23T23:01:23.005Z,97705.69
2022-12-23T23:03:54.239Z,97717.28
2022-12-23T23:06:20.774Z,97706.97
2022-12-23T23:08:47.328Z,97717.28
2022-12-23T23:11:13.873Z,97715.69
2022-12-23T23:13:40.382Z,97706.22
2022-12-23T23:16:07.054Z,97703.50
2022-12-23T23:18:33.715Z,97708.72
2022-12-23T23:21:00.478Z,97714.34
2022-12-23T23:23:27.000Z,97714.47
2022-12-23T23:25:53.544Z,97708.88
2022-12-23T23:28:20.143Z,97712.25
2022-12-23T23:30:46.642Z,97705.78
2022-12-23T23:33:13.261Z,97712.09
2022-12-23T23:35:39.816Z,97712.84
2022-12-23T23:38:06.356Z,97718.88
2022-12-23T23:40:32.896Z,97722.72
2022-12-23T23:42:59.449Z,97734.03
2022-12-23T23:45:27.540Z,97733.38
2022-12-23T23:47:54.603Z,97739.72
2022-12-23T23:50:21.153Z,97729.84
2022-12-23T23:52:47.698Z,97751.84
2022-12-23T23:55:14.220Z,97748.69
2022-12-23T23:57:40.806Z,97747.00
